Time;durP1;ratioP1;P1;durP2;ratioP2;P2;SDS_P1;SDS_P2;PMS_P1;PMS_P2;Temp;Humidity;BMP_temperature;BMP_pressure;BME280_temperature;BME280_humidity;BME280_pressure;Samples;Min_cycle;Max_cycle;Signal;HPM_P1;HPM_P2
2023/03/12 00:02:25;;;;;;;0.25;0.25;;;;;;;4.44;48.41;99317.00;5277172;27;32687;-89
2023/03/12 00:04:54;;;;;;;0.30;0.30;;;;;;;4.45;48.04;99329.16;5280562;27;32683;-89
2023/03/12 00:07:35;;;;;;;0.30;0.30;;;;;;;4.28;48.63;99338.31;5262688;27;33255;-89
2023/03/12 00:10:06;;;;;;;0.00;0.00;;;;;;;4.71;46.22;99331.97;5297941;27;32707;-88
2023/03/12 00:12:34;;;;;;;0.00;0.00;;;;;;;4.50;46.43;99341.22;5261290;27;33759;-89
2023/03/12 00:15:02;;;;;;;0.00;0.00;;;;;;;4.50;46.42;99351.69;5279121;27;33657;-89
2023/03/12 00:17:31;;;;;;;0.13;0.05;;;;;;;4.46;46.89;99359.63;5280850;27;32592;-91
2023/03/12 00:20:08;;;;;;;0.10;0.10;;;;;;;4.59;46.66;99353.19;5281327;27;32312;-90
2023/03/12 00:22:56;;;;;;;0.00;0.00;;;;;;;4.57;45.64;99360.22;5295863;27;32334;-90
2023/03/12 00:25:26;;;;;;;0.00;0.00;;;;;;;4.92;43.83;99361.03;5280698;27;33092;-89
2023/03/12 00:27:55;;;;;;;0.00;0.00;;;;;;;4.88;43.27;99366.34;5281246;27;33384;-89
2023/03/12 00:30:26;;;;;;;0.00;0.00;;;;;;;4.84;43.82;99356.88;5281270;27;34068;-89
2023/03/12 00:32:54;;;;;;;1.37;1.27;;;;;;;5.06;43.50;99364.12;5281299;27;33503;-88
2023/03/12 00:35:22;;;;;;;0.00;0.00;;;;;;;4.96;44.63;99362.66;5280620;27;33995;-89
2023/03/12 00:37:51;;;;;;;0.00;0.00;;;;;;;4.95;45.03;99374.91;5280505;27;33948;-89
2023/03/12 00:42:54;;;;;;;0.00;0.00;;;;;;;4.99;45.12;99379.16;5272745;27;32398;-90
2023/03/12 00:45:24;;;;;;;0.10;0.10;;;;;;;5.27;44.25;99379.22;5275498;27;33949;-87
2023/03/12 00:47:54;;;;;;;0.00;0.00;;;;;;;5.01;45.10;99376.47;5261351;27;33320;-86
2023/03/12 00:50:24;;;;;;;0.85;0.85;;;;;;;5.40;44.39;99391.03;5278001;27;32998;-86
2023/03/12 00:52:53;;;;;;;0.00;0.00;;;;;;;5.27;44.57;99399.28;5260957;27;32662;-86
2023/03/12 00:55:24;;;;;;;0.00;0.00;;;;;;;4.77;46.19;99399.78;5296058;27;33712;-86
2023/03/12 00:57:51;;;;;;;0.60;0.45;;;;;;;4.99;45.84;99400.06;5278600;27;32958;-86
2023/03/12 01:00:20;;;;;;;1.85;0.25;;;;;;;5.02;46.21;99399.97;5278591;27;33538;-87
2023/03/12 01:02:48;;;;;;;0.00;0.00;;;;;;;5.43;44.37;99400.56;5296905;27;33007;-86
2023/03/12 01:05:16;;;;;;;0.05;0.05;;;;;;;5.24;45.21;99405.47;5278641;27;33621;-86
2023/03/12 01:07:45;;;;;;;0.00;0.00;;;;;;;5.21;45.25;99410.78;5278784;27;33540;-86
2023/03/12 01:10:15;;;;;;;0.00;0.00;;;;;;;5.07;44.98;99413.78;5296417;27;33906;-86
2023/03/12 01:12:44;;;;;;;0.00;0.00;;;;;;;4.90;45.83;99415.16;5296813;27;32659;-87
2023/03/12 01:15:14;;;;;;;0.00;0.00;;;;;;;4.30;47.99;99420.16;5297003;27;32942;-88
2023/03/12 01:17:42;;;;;;;0.03;0.03;;;;;;;4.55;47.37;99407.31;5297915;27;33085;-90
2023/03/12 01:20:11;;;;;;;0.00;0.00;;;;;;;4.59;47.40;99419.41;5280346;27;32813;-90
2023/03/12 01:22:39;;;;;;;0.00;0.00;;;;;;;4.70;46.86;99419.16;5279958;27;32963;-90
2023/03/12 01:25:08;;;;;;;0.00;0.00;;;;;;;4.41;47.51;99422.50;5297814;27;32759;-89
2023/03/12 01:27:38;;;;;;;0.00;0.00;;;;;;;4.65;46.98;99423.63;5262357;27;33798;-89
2023/03/12 01:30:07;;;;;;;0.57;0.57;;;;;;;4.66;46.97;99435.84;5280292;27;33046;-90
2023/03/12 01:32:35;;;;;;;1.52;1.42;;;;;;;4.85;46.41;99437.06;5279713;27;32701;-89
2023/03/12 01:35:03;;;;;;;0.00;0.00;;;;;;;4.63;47.26;99438.50;5279711;27;32898;-89
2023/03/12 01:37:33;;;;;;;0.00;0.00;;;;;;;4.53;47.56;99437.87;5279975;27;33324;-89
2023/03/12 01:40:02;;;;;;;0.00;0.00;;;;;;;4.53;47.69;99437.03;5298151;27;33070;-89
2023/03/12 01:42:30;;;;;;;0.00;0.00;;;;;;;4.64;47.69;99437.59;5279598;27;32320;-89
2023/03/12 01:45:01;;;;;;;0.98;0.98;;;;;;;4.39;48.22;99445.22;5261805;27;32554;-89
2023/03/12 01:47:33;;;;;;;0.00;0.00;;;;;;;4.55;47.79;99440.44;5279757;27;33033;-90
2023/03/12 01:50:03;;;;;;;0.00;0.00;;;;;;;4.19;48.77;99437.84;5298041;27;33155;-90
2023/03/12 01:52:35;;;;;;;0.10;0.10;;;;;;;4.55;47.69;99437.84;5279585;27;32020;-89
2023/03/12 01:55:05;;;;;;;0.00;0.00;;;;;;;4.59;47.76;99431.63;5278597;27;32689;-89
2023/03/12 01:58:01;;;;;;;0.03;0.03;;;;;;;4.71;47.51;99431.34;5278931;27;33614;-89
2023/03/12 02:00:50;;;;;;;0.03;0.03;;;;;;;4.64;47.87;99432.38;5294786;27;32549;-92
2023/03/12 02:03:43;;;;;;;0.00;0.00;;;;;;;4.53;48.36;99437.87;5332192;26;33443;-92
2023/03/12 02:06:50;;;;;;;0.00;0.00;;;;;;;4.06;50.00;99447.72;5321213;27;34028;-92
2023/03/12 02:09:45;;;;;;;0.45;0.45;;;;;;;4.22;49.27;99450.81;5260466;27;33614;-92
2023/03/12 02:12:25;;;;;;;0.15;0.15;;;;;;;4.30;49.09;99471.56;5286332;27;32615;-91
2023/03/12 02:15:16;;;;;;;0.00;0.00;;;;;;;4.32;49.33;99468.03;5299435;26;32586;-86
2023/03/12 02:17:44;;;;;;;0.10;0.10;;;;;;;4.38;49.14;99480.09;5304267;26;34700;-86
2023/03/12 02:20:20;;;;;;;0.00;0.00;;;;;;;4.50;48.80;99477.16;5303787;26;34621;-87
2023/03/12 02:22:51;;;;;;;0.80;0.47;;;;;;;4.34;49.41;99489.75;5322482;26;32940;-87
2023/03/12 02:25:36;;;;;;;0.40;0.40;;;;;;;4.40;49.45;99485.28;5285421;26;32361;-86
2023/03/12 02:28:12;;;;;;;0.00;0.00;;;;;;;4.66;48.51;99487.28;5305288;26;32977;-86
2023/03/12 02:30:42;;;;;;;0.00;0.00;;;;;;;4.77;48.02;99493.94;5305545;26;34130;-88
2023/03/12 02:33:10;;;;;;;0.60;0.60;;;;;;;4.31;49.40;99489.81;5305655;26;33559;-87
2023/03/12 02:35:38;;;;;;;0.17;0.17;;;;;;;4.44;49.31;99495.63;5305293;26;33315;-87
2023/03/12 02:38:31;;;;;;;1.17;1.08;;;;;;;4.36;49.70;99487.09;5303253;26;33742;-88
2023/03/12 02:41:13;;;;;;;0.00;0.00;;;;;;;4.28;49.76;99489.91;5340880;26;33511;-87
2023/03/12 02:43:44;;;;;;;1.10;1.05;;;;;;;3.84;51.27;99496.94;5304390;26;34201;-87
2023/03/12 02:46:12;;;;;;;0.47;0.47;;;;;;;3.90;51.14;99497.75;5286322;26;34693;-87
2023/03/12 02:48:41;;;;;;;0.05;0.05;;;;;;;3.73;51.70;99501.56;5286197;26;33369;-87
2023/03/12 02:51:08;;;;;;;0.10;0.10;;;;;;;3.55;52.37;99504.53;5323289;26;34302;-90
2023/03/12 02:53:53;;;;;;;0.20;0.20;;;;;;;3.43;52.53;99502.19;5287254;26;32280;-90
2023/03/12 02:56:23;;;;;;;0.00;0.00;;;;;;;3.71;51.64;99512.94;5287942;26;32546;-90
2023/03/12 02:58:53;;;;;;;0.98;0.98;;;;;;;3.63;51.87;99523.53;5323880;26;32475;-90
2023/03/12 03:01:32;;;;;;;0.30;0.30;;;;;;;3.59;52.24;99529.69;5306131;26;32633;-90
2023/03/12 03:04:05;;;;;;;0.05;0.05;;;;;;;3.82;51.34;99532.72;5288335;26;32438;-90
2023/03/12 03:06:35;;;;;;;0.00;0.00;;;;;;;3.73;51.84;99532.88;5287860;26;32152;-90
2023/03/12 03:09:04;;;;;;;4.70;0.75;;;;;;;3.52;52.37;99543.78;5304783;26;33731;-89
2023/03/12 03:11:33;;;;;;;0.00;0.00;;;;;;;3.49;52.64;99552.50;5286483;26;32730;-89
2023/03/12 03:14:03;;;;;;;0.20;0.20;;;;;;;3.26;53.03;99554.69;5300649;27;32604;-88
2023/03/12 03:16:32;;;;;;;0.08;0.08;;;;;;;3.58;52.01;99560.16;5283252;27;32651;-88
2023/03/12 03:18:59;;;;;;;0.00;0.00;;;;;;;3.44;52.38;99556.97;5301169;27;33217;-89
2023/03/12 03:21:29;;;;;;;3.50;0.37;;;;;;;3.69;51.98;99566.94;5301025;27;33076;-90
2023/03/12 03:24:37;;;;;;;0.10;0.10;;;;;;;3.67;51.97;99574.81;5289369;27;33633;-90
2023/03/12 03:27:05;;;;;;;0.05;0.05;;;;;;;3.59;52.35;99580.16;5302306;27;33723;-90
2023/03/12 03:29:33;;;;;;;0.00;0.00;;;;;;;3.58;52.19;99574.97;5301931;27;32328;-90
2023/03/12 03:32:02;;;;;;;0.40;0.40;;;;;;;3.45;52.80;99578.69;5283693;27;33313;-90
2023/03/12 03:34:30;;;;;;;0.60;0.60;;;;;;;3.50;52.45;99579.47;5283349;27;33302;-89
2023/03/12 03:36:58;;;;;;;0.57;0.57;;;;;;;3.78;51.83;99579.81;5282936;27;32683;-88
2023/03/12 03:39:28;;;;;;;0.25;0.25;;;;;;;3.60;52.39;99588.84;5300890;27;32750;-88
2023/03/12 03:41:56;;;;;;;0.00;0.00;;;;;;;3.21;53.42;99600.88;5282726;27;33254;-87
2023/03/12 03:44:25;;;;;;;0.28;0.28;;;;;;;3.07;53.61;99593.25;5300766;27;34783;-89
2023/03/12 03:46:54;;;;;;;0.40;0.40;;;;;;;3.12;53.57;99591.44;5301157;27;33080;-89
2023/03/12 03:49:22;;;;;;;0.60;0.60;;;;;;;3.45;52.54;99594.34;5300841;27;34514;-88
2023/03/12 03:51:50;;;;;;;0.05;0.05;;;;;;;3.53;52.08;99587.25;5300034;27;32833;-88
2023/03/12 03:54:19;;;;;;;0.35;0.35;;;;;;;3.40;52.87;99606.63;5283341;27;32433;-90
2023/03/12 03:56:47;;;;;;;0.15;0.15;;;;;;;3.39;52.38;99610.13;5284097;27;31776;-90
2023/03/12 03:59:23;;;;;;;5.93;1.10;;;;;;;3.55;52.30;99601.12;5285519;27;32716;-91
2023/03/12 04:02:11;;;;;;;0.10;0.10;;;;;;;3.67;51.82;99595.69;5285867;27;33200;-89
2023/03/12 04:04:39;;;;;;;0.77;0.77;;;;;;;3.83;51.23;99597.09;5282858;27;35143;-89
2023/03/12 04:07:08;;;;;;;0.10;0.10;;;;;;;3.88;50.87;99599.63;5301524;27;33500;-90
2023/03/12 04:09:38;;;;;;;0.03;0.03;;;;;;;3.75;51.09;99614.69;5283333;27;32574;-89
2023/03/12 04:12:06;;;;;;;0.10;0.10;;;;;;;3.93;50.58;99615.19;5301592;27;34449;-90
2023/03/12 04:14:41;;;;;;;0.00;0.00;;;;;;;3.87;50.91;99625.78;5305774;26;34289;-90
2023/03/12 04:17:10;;;;;;;1.87;1.30;;;;;;;3.89;50.65;99621.38;5304284;26;32718;-89
2023/03/12 04:19:39;;;;;;;0.15;0.15;;;;;;;3.88;50.81;99614.44;5287040;26;34389;-90
2023/03/12 04:22:10;;;;;;;0.00;0.00;;;;;;;3.82;51.33;99636.31;5287876;26;33848;-90
2023/03/12 04:24:42;;;;;;;0.00;0.00;;;;;;;3.55;52.08;99638.53;5287171;26;33978;-88
2023/03/12 04:27:10;;;;;;;0.15;0.15;;;;;;;3.36;51.94;99644.97;5323143;26;33040;-88
2023/03/12 04:29:40;;;;;;;0.85;0.85;;;;;;;3.60;51.69;99656.72;5341286;26;34097;-88
2023/03/12 04:32:09;;;;;;;0.85;0.85;;;;;;;3.50;52.23;99657.78;5287413;26;34621;-88
2023/03/12 04:34:38;;;;;;;0.08;0.08;;;;;;;3.40;52.29;99669.25;5322408;26;34315;-88
2023/03/12 04:37:10;;;;;;;0.43;0.43;;;;;;;3.95;50.48;99678.75;5304371;26;32205;-88
2023/03/12 04:39:44;;;;;;;0.70;0.43;;;;;;;3.87;50.55;99680.63;5324430;26;33571;-88
2023/03/12 04:42:14;;;;;;;0.73;0.62;;;;;;;3.63;51.23;99689.75;5322511;26;32672;-88
2023/03/12 04:44:44;;;;;;;0.25;0.25;;;;;;;3.60;51.52;99706.34;5286954;26;32986;-89
2023/03/12 04:47:12;;;;;;;0.77;0.77;;;;;;;3.37;52.38;99696.28;5286895;26;32122;-89
2023/03/12 04:49:40;;;;;;;0.15;0.15;;;;;;;3.57;51.62;99702.03;5286332;26;33061;-90
2023/03/12 04:52:08;;;;;;;0.00;0.00;;;;;;;3.62;51.43;99701.97;5286239;26;33125;-90
2023/03/12 04:54:36;;;;;;;2.10;0.62;;;;;;;3.13;53.53;99704.47;5304924;26;33450;-89
2023/03/12 04:57:04;;;;;;;0.00;0.00;;;;;;;3.14;53.05;99699.25;5341276;26;32371;-88
2023/03/12 04:59:32;;;;;;;0.37;0.37;;;;;;;3.19;53.20;99699.19;5304913;26;33780;-87
2023/03/12 05:02:00;;;;;;;0.00;0.00;;;;;;;3.21;52.86;99708.69;5285687;26;34454;-87
2023/03/12 05:04:32;;;;;;;1.35;1.25;;;;;;;3.07;53.34;99708.03;5341380;26;33656;-87
2023/03/12 05:07:01;;;;;;;0.08;0.08;;;;;;;2.97;53.58;99714.28;5322721;26;32436;-87
2023/03/12 05:09:31;;;;;;;0.40;0.40;;;;;;;2.87;53.88;99716.16;5305327;26;32530;-87
2023/03/12 05:12:00;;;;;;;0.25;0.25;;;;;;;2.81;54.00;99700.62;5304373;26;32508;-87
2023/03/12 05:14:31;;;;;;;0.10;0.10;;;;;;;2.85;53.87;99712.72;5323498;26;33510;-87
2023/03/12 05:17:00;;;;;;;0.10;0.10;;;;;;;3.08;53.50;99710.63;5287489;26;33221;-87
2023/03/12 05:19:28;;;;;;;0.00;0.00;;;;;;;3.04;53.54;99713.34;5286964;26;33582;-87
2023/03/12 05:22:01;;;;;;;0.80;0.80;;;;;;;3.16;53.57;99717.50;5289231;26;33665;-87
2023/03/12 05:24:34;;;;;;;0.73;0.73;;;;;;;3.11;53.69;99717.56;5289440;26;33597;-87
2023/03/12 05:27:03;;;;;;;0.00;0.00;;;;;;;3.03;53.86;99725.47;5323314;26;32948;-87
2023/03/12 05:29:34;;;;;;;1.35;0.55;;;;;;;3.20;53.29;99733.06;5305492;26;32833;-87
2023/03/12 05:32:03;;;;;;;0.22;0.22;;;;;;;3.29;52.74;99745.12;5287251;26;32654;-88
2023/03/12 05:34:33;;;;;;;0.00;0.00;;;;;;;3.25;53.07;99746.91;5288136;26;32817;-87
2023/03/12 05:37:04;;;;;;;0.30;0.30;;;;;;;3.54;52.18;99748.22;5304340;26;33325;-87
2023/03/12 05:39:33;;;;;;;0.00;0.00;;;;;;;3.42;52.41;99754.50;5304103;26;33874;-88
2023/03/12 05:42:03;;;;;;;0.08;0.08;;;;;;;3.41;52.73;99757.97;5303402;26;33053;-87
2023/03/12 05:44:33;;;;;;;0.15;0.15;;;;;;;3.52;52.22;99744.78;5285131;26;33060;-87
2023/03/12 05:47:01;;;;;;;0.00;0.00;;;;;;;3.49;52.30;99747.44;5285643;26;33568;-88
2023/03/12 05:49:30;;;;;;;0.00;0.00;;;;;;;3.34;52.61;99754.59;5285425;26;33643;-87
2023/03/12 05:51:59;;;;;;;1.98;1.25;;;;;;;3.42;52.43;99766.66;5303715;26;33377;-88
2023/03/12 05:54:30;;;;;;;2.67;1.33;;;;;;;3.18;52.87;99766.16;5285543;26;33976;-87
2023/03/12 05:57:02;;;;;;;0.10;0.10;;;;;;;3.46;52.15;99774.44;5303438;26;33949;-88
2023/03/12 05:59:35;;;;;;;5.10;2.60;;;;;;;3.52;52.29;99781.31;5286492;26;32755;-87
2023/03/12 06:02:07;;;;;;;1.23;1.12;;;;;;;3.55;52.28;99786.47;5285134;26;32458;-89
2023/03/12 06:04:37;;;;;;;1.40;1.30;;;;;;;3.73;52.05;99783.59;5320663;26;33373;-89
2023/03/12 06:07:06;;;;;;;1.17;0.70;;;;;;;4.13;50.93;99788.16;5301766;26;31895;-88
2023/03/12 06:09:38;;;;;;;0.20;0.20;;;;;;;3.84;51.76;99792.09;5284572;26;32874;-89
2023/03/12 06:12:07;;;;;;;0.20;0.20;;;;;;;3.82;51.47;99804.34;5300740;26;32808;-89
2023/03/12 06:14:35;;;;;;;0.77;0.77;;;;;;;3.76;51.84;99806.19;5279612;27;35244;-89
2023/03/12 06:17:05;;;;;;;0.00;0.00;;;;;;;3.70;51.98;99808.88;5298266;27;33417;-88
2023/03/12 06:19:33;;;;;;;0.30;0.30;;;;;;;3.64;52.36;99819.44;5280077;27;33231;-88
2023/03/12 06:22:12;;;;;;;0.20;0.20;;;;;;;3.61;52.44;99830.78;5283107;27;33691;-89
2023/03/12 06:24:48;;;;;;;0.00;0.00;;;;;;;4.17;50.54;99829.00;5317114;27;33097;-89
2023/03/12 06:27:20;;;;;;;0.45;0.45;;;;;;;3.91;51.08;99824.22;5263636;27;32464;-88
2023/03/12 06:29:51;;;;;;;0.10;0.10;;;;;;;4.04;50.57;99827.50;5271685;27;34245;-88
2023/03/12 06:32:26;;;;;;;0.50;0.50;;;;;;;3.56;51.85;99837.81;5316634;27;34437;-88
2023/03/12 06:34:59;;;;;;;;;;;;;;;4.07;50.85;99840.50;5299518;27;32474;-88
2023/03/12 06:37:29;;;;;;;0.10;0.10;;;;;;;3.88;50.88;99846.91;5281559;27;32531;-88
2023/03/12 06:39:57;;;;;;;0.30;0.30;;;;;;;4.23;50.36;99839.38;5280321;27;32881;-89
2023/03/12 06:42:33;;;;;;;0.17;0.17;;;;;;;4.22;50.37;99840.22;5316369;27;34015;-88
2023/03/12 06:45:03;;;;;;;0.15;0.15;;;;;;;4.11;50.91;99847.41;5316319;27;33603;-88
2023/03/12 06:47:38;;;;;;;0.10;0.10;;;;;;;3.99;50.96;99858.06;5299759;27;32809;-87
2023/03/12 06:50:13;;;;;;;0.20;0.20;;;;;;;4.20;49.81;99856.84;5298819;27;34382;-87
2023/03/12 06:52:42;;;;;;;0.62;0.57;;;;;;;4.67;48.56;99853.38;5279946;27;33029;-88
2023/03/12 06:55:11;;;;;;;0.03;0.03;;;;;;;4.59;48.41;99850.03;5272931;27;32874;-87
2023/03/12 06:57:39;;;;;;;0.35;0.35;;;;;;;4.66;47.97;99849.06;5281217;27;33660;-87
2023/03/12 07:00:14;;;;;;;0.00;0.00;;;;;;;4.66;47.99;99856.91;5264761;27;34241;-88
2023/03/12 07:02:43;;;;;;;0.20;0.20;;;;;;;4.69;48.16;99864.66;5280740;27;33276;-88
2023/03/12 07:05:12;;;;;;;0.03;0.03;;;;;;;4.39;48.70;99858.25;5303187;27;33938;-87
2023/03/12 07:07:41;;;;;;;0.08;0.08;;;;;;;4.52;48.79;99870.22;5285463;27;32984;-88
2023/03/12 07:10:12;;;;;;;0.00;0.00;;;;;;;4.44;49.11;99868.62;5297303;27;33386;-88
2023/03/12 07:12:42;;;;;;;0.00;0.00;;;;;;;4.34;49.12;99876.63;5312323;27;33212;-89
2023/03/12 07:15:36;;;;;;;0.52;0.52;;;;;;;4.26;49.57;99886.34;5276570;27;33534;-90
2023/03/12 07:18:25;;;;;;;1.25;0.60;;;;;;;4.40;49.76;99882.62;5282765;27;32071;-93
2023/03/12 07:21:22;;;;;;;0.00;0.00;;;;;;;4.76;49.52;99881.97;5277326;27;33282;-90
2023/03/12 07:23:56;;;;;;;0.98;0.98;;;;;;;4.47;49.04;99879.91;5260939;27;32586;-90
2023/03/12 07:26:42;;;;;;;0.00;0.00;;;;;;;4.57;48.68;99877.97;5281718;27;33690;-89
2023/03/12 07:29:12;;;;;;;0.93;0.93;;;;;;;5.12;47.91;99882.13;5294592;27;32281;-87
2023/03/12 07:31:42;;;;;;;0.60;0.60;;;;;;;5.05;47.62;99881.41;5313946;27;32731;-86
2023/03/12 07:34:13;;;;;;;0.82;0.60;;;;;;;5.46;46.43;99876.19;5291850;27;33439;-86
2023/03/12 07:36:44;;;;;;;0.10;0.10;;;;;;;5.45;46.33;99884.97;5286589;27;32391;-86
2023/03/12 07:39:12;;;;;;;0.00;0.00;;;;;;;5.23;47.52;99885.44;5271451;27;33755;-86
2023/03/12 07:41:40;;;;;;;0.22;0.22;;;;;;;5.37;47.60;99893.84;5290454;27;33433;-86
2023/03/12 07:44:09;;;;;;;0.20;0.20;;;;;;;5.56;46.50;99893.47;5272902;27;34827;-86
2023/03/12 07:46:38;;;;;;;0.43;0.43;;;;;;;5.59;45.85;99894.22;5295914;27;32180;-85
2023/03/12 07:49:08;;;;;;;0.00;0.00;;;;;;;6.13;44.31;99890.44;5270913;27;32394;-85
2023/03/12 07:51:41;;;;;;;0.10;0.10;;;;;;;5.90;46.25;99883.09;5286182;27;32232;-86
2023/03/12 07:54:12;;;;;;;0.30;0.30;;;;;;;5.75;47.00;99889.53;5274396;27;32897;-86
2023/03/12 07:56:40;;;;;;;0.00;0.00;;;;;;;6.09;45.19;99894.87;5289469;27;34238;-86
2023/03/12 07:59:12;;;;;;;;;;;;;;;6.11;44.41;99900.94;5297290;27;32867;-85
2023/03/12 08:01:45;;;;;;;0.90;0.82;;;;;;;5.91;45.19;99890.03;5273146;27;33770;-86
2023/03/12 08:04:15;;;;;;;0.08;0.08;;;;;;;5.34;46.08;99904.38;5269021;27;32836;-86
2023/03/12 08:06:44;;;;;;;0.00;0.00;;;;;;;6.07;44.38;99896.66;5287872;27;32775;-86
2023/03/12 08:09:16;;;;;;;0.35;0.35;;;;;;;5.99;44.86;99897.75;5290385;27;33900;-86
2023/03/12 08:11:44;;;;;;;0.00;0.00;;;;;;;6.67;44.19;99895.19;5289380;27;33569;-86
2023/03/12 08:14:18;;;;;;;0.25;0.25;;;;;;;6.57;43.74;99896.31;5269309;27;34277;-85
2023/03/12 08:16:48;;;;;;;0.60;0.60;;;;;;;6.46;44.57;99898.34;5275938;27;33046;-86
2023/03/12 08:19:17;;;;;;;0.00;0.00;;;;;;;6.09;44.08;99900.13;5289464;27;32336;-86
2023/03/12 08:21:50;;;;;;;0.10;0.10;;;;;;;6.37;43.99;99904.72;5279218;27;32802;-86
2023/03/12 08:24:21;;;;;;;0.37;0.35;;;;;;;6.90;42.49;99900.69;5290227;26;33607;-86
2023/03/12 08:33:24;;;;;;;1.65;1.55;;;;;;;7.25;40.71;99900.59;5337263;26;34293;-82
2023/03/12 08:35:53;;;;;;;0.00;0.00;;;;;;;7.38;39.43;99908.09;5318562;26;34783;-82
2023/03/12 08:38:29;;;;;;;0.43;0.43;;;;;;;7.31;40.69;99919.69;5301307;26;32423;-82
2023/03/12 08:41:04;;;;;;;0.10;0.10;;;;;;;7.51;39.79;99907.75;5315801;26;33131;-83
2023/03/12 08:43:33;;;;;;;0.28;0.28;;;;;;;7.66;39.43;99908.13;5319670;26;33420;-84
2023/03/12 08:46:08;;;;;;;0.80;0.80;;;;;;;7.84;39.73;99906.72;5299662;26;34309;-83
2023/03/12 08:48:43;;;;;;;0.55;0.55;;;;;;;7.87;39.29;99905.75;5300669;26;32973;-83
2023/03/12 08:51:21;;;;;;;4.18;0.73;;;;;;;7.94;39.18;99910.78;5297923;26;32215;-82
2023/03/12 08:53:56;;;;;;;3.00;1.23;;;;;;;8.01;39.76;99907.94;5315139;26;32973;-83
2023/03/12 08:56:31;;;;;;;0.25;0.25;;;;;;;8.23;38.79;99902.87;5319320;26;34589;-83
2023/03/12 08:59:03;;;;;;;0.73;0.73;;;;;;;8.38;38.17;99892.72;5296337;26;33129;-82
2023/03/12 09:01:44;;;;;;;1.30;1.17;;;;;;;8.25;37.27;99899.28;5319333;26;33821;-83
2023/03/12 09:04:12;;;;;;;0.13;0.13;;;;;;;8.43;37.60;99896.06;5319280;26;34227;-83
2023/03/12 09:06:40;;;;;;;0.55;0.55;;;;;;;7.93;37.79;99890.66;5299534;26;32958;-83
2023/03/12 09:09:15;;;;;;;0.00;0.00;;;;;;;8.79;36.96;99903.66;5318937;26;33577;-83
2023/03/12 09:11:47;;;;;;;2.75;0.30;;;;;;;8.69;36.69;99899.63;5298580;26;32807;-83
2023/03/12 09:14:19;;;;;;;0.00;0.00;;;;;;;8.28;36.05;99891.28;5319462;26;33097;-83
2023/03/12 09:17:09;;;;;;;0.43;0.43;;;;;;;8.18;36.46;99900.41;5302000;26;33279;-83
2023/03/12 09:19:43;;;;;;;0.20;0.20;;;;;;;8.69;37.01;99896.97;5319110;26;33920;-83
2023/03/12 09:22:18;;;;;;;0.20;0.20;;;;;;;9.15;36.44;99896.19;5286639;26;32945;-84
2023/03/12 09:24:48;;;;;;;0.00;0.00;;;;;;;9.13;35.38;99894.53;5336915;26;34783;-83
2023/03/12 09:27:19;;;;;;;0.32;0.32;;;;;;;9.40;35.46;99895.28;5300397;26;33705;-83
2023/03/12 09:29:56;;;;;;;0.15;0.15;;;;;;;9.21;34.87;99895.13;5320656;26;33608;-83
2023/03/12 09:32:45;;;;;;;0.00;0.00;;;;;;;8.95;35.11;99903.97;5302108;26;31935;-83
2023/03/12 09:35:20;;;;;;;0.30;0.10;;;;;;;9.34;33.94;99900.78;5338266;26;33102;-83
2023/03/12 09:37:58;;;;;;;0.00;0.00;;;;;;;9.35;34.64;99892.84;5301639;26;32696;-83
2023/03/12 09:40:46;;;;;;;0.30;0.30;;;;;;;9.69;35.05;99889.78;5322421;26;33173;-83
2023/03/12 09:43:31;;;;;;;0.13;0.13;;;;;;;9.59;33.39;99900.72;5300833;26;32070;-83
2023/03/12 09:46:05;;;;;;;0.37;0.37;;;;;;;9.70;33.62;99895.91;5301904;26;33295;-83
2023/03/12 09:48:35;;;;;;;;;;;;;;;9.87;33.57;99890.81;5321087;26;34256;-84
2023/03/12 09:59:21;;;;;;;0.17;0.17;;;;;;;10.39;31.69;99888.75;5322068;26;34553;-83
2023/03/12 10:04:43;;;;;;;0.75;0.45;;;;;;;10.24;32.17;99889.41;5321968;26;34108;-84
2023/03/12 10:07:40;;;;;;;0.15;0.15;;;;;;;10.38;32.34;99883.53;5322692;26;33278;-84
2023/03/12 10:10:34;;;;;;;0.08;0.08;;;;;;;10.30;32.68;99888.28;5301609;26;33357;-84
2023/03/12 10:13:26;;;;;;;0.43;0.43;;;;;;;10.71;31.11;99889.19;5321493;26;34375;-84
2023/03/12 10:16:38;;;;;;;0.13;0.13;;;;;;;10.20;32.11;99893.91;5319360;26;32806;-84
2023/03/12 10:19:31;;;;;;;2.45;0.55;;;;;;;10.36;32.41;99888.03;5319633;26;33453;-84
2023/03/12 10:22:29;;;;;;;0.00;0.00;;;;;;;10.54;30.68;99891.69;5319199;26;32858;-84
2023/03/12 10:25:18;;;;;;;1.02;0.75;;;;;;;10.18;30.82;99886.97;5317869;26;33092;-84
2023/03/12 10:27:47;;;;;;;3.53;0.45;;;;;;;10.62;30.53;99889.56;5328817;26;34384;-84
2023/03/12 10:30:27;;;;;;;0.00;0.00;;;;;;;10.63;30.16;99899.22;5302234;26;34351;-84
2023/03/12 10:33:00;;;;;;;0.40;0.40;;;;;;;11.23;30.24;99886.91;5301657;26;32866;-84
2023/03/12 10:35:35;;;;;;;0.00;0.00;;;;;;;11.26;29.13;99894.72;5321189;26;34312;-84
2023/03/12 10:40:55;;;;;;;0.32;0.32;;;;;;;11.07;28.54;99899.09;5322164;26;33367;-84
2023/03/12 10:43:24;;;;;;;0.43;0.43;;;;;;;11.43;27.61;99896.56;5302033;26;34788;-84
2023/03/12 10:46:02;;;;;;;0.28;0.28;;;;;;;11.58;26.83;99897.66;5337916;26;32637;-84
2023/03/12 10:48:32;;;;;;;0.80;0.80;;;;;;;11.60;28.92;99907.25;5320926;26;32999;-84
2023/03/12 10:51:05;;;;;;;0.10;0.10;;;;;;;11.81;25.03;99897.44;5301928;26;34323;-84
2023/03/12 10:53:41;;;;;;;0.10;0.10;;;;;;;11.74;25.93;99898.66;5319748;26;34473;-84
2023/03/12 10:56:22;;;;;;;0.05;0.05;;;;;;;11.48;27.55;99898.06;5304332;26;33660;-84
2023/03/12 10:58:53;;;;;;;0.10;0.10;;;;;;;11.97;27.57;99903.75;5304434;26;33550;-84
2023/03/12 11:01:28;;;;;;;0.93;0.88;;;;;;;12.09;27.10;99901.44;5304302;26;33973;-84
2023/03/12 11:04:13;;;;;;;1.10;0.32;;;;;;;11.61;28.51;99908.94;5322938;26;34836;-84
2023/03/12 11:07:27;;;;;;;1.55;0.70;;;;;;;12.23;27.07;99894.56;5304431;26;33213;-84
2023/03/12 11:10:07;;;;;;;3.30;1.25;;;;;;;11.75;26.54;99905.66;5217051;27;33298;-84
2023/03/12 11:12:41;;;;;;;0.30;0.30;;;;;;;11.80;26.58;99898.38;5337068;26;33835;-84
2023/03/12 11:15:22;;;;;;;0.00;0.00;;;;;;;11.88;25.76;99900.69;5305622;26;33436;-84
2023/03/12 11:17:51;;;;;;;0.20;0.20;;;;;;;11.52;23.76;99897.00;5304733;26;32926;-83
2023/03/12 11:20:29;;;;;;;0.00;0.00;;;;;;;12.17;23.86;99894.00;5324821;26;35055;-83
2023/03/12 11:23:16;;;;;;;0.00;0.00;;;;;;;11.59;23.66;99902.03;5306344;26;32523;-83
2023/03/12 11:25:59;;;;;;;0.10;0.10;;;;;;;11.25;23.53;99908.81;5306723;26;34084;-84
2023/03/12 11:28:39;;;;;;;1.05;0.43;;;;;;;11.57;22.75;99906.53;5323442;26;33519;-83
2023/03/12 11:31:20;;;;;;;0.05;0.05;;;;;;;12.18;22.35;99901.87;5324274;26;33831;-84
2023/03/12 11:33:51;;;;;;;0.03;0.03;;;;;;;12.67;19.93;99899.41;5341906;26;34643;-84
2023/03/12 11:36:45;;;;;;;0.62;0.15;;;;;;;12.83;18.46;99891.56;5306614;26;33854;-84
2023/03/12 11:39:30;;;;;;;0.62;0.62;;;;;;;12.64;19.20;99885.50;5324105;26;34307;-84
2023/03/12 11:42:15;;;;;;;1.25;0.73;;;;;;;12.18;21.46;99899.22;5298286;26;33690;-83
2023/03/12 11:44:52;;;;;;;0.00;0.00;;;;;;;12.00;22.36;99898.31;5323903;26;34278;-84
2023/03/12 11:47:57;;;;;;;0.55;0.32;;;;;;;12.22;23.42;99895.50;5323134;26;33671;-84
2023/03/12 11:50:32;;;;;;;0.00;0.00;;;;;;;12.73;24.07;99893.81;5297543;26;32900;-84
2023/03/12 11:53:11;;;;;;;0.28;0.25;;;;;;;13.04;21.05;99885.13;5341444;26;33542;-84
2023/03/12 11:56:10;;;;;;;0.65;0.37;;;;;;;13.41;19.94;99883.22;5322805;26;32561;-84
2023/03/12 12:02:10;;;;;;;0.00;0.00;;;;;;;13.09;19.78;99887.53;5323665;26;33860;-84
2023/03/12 12:05:03;;;;;;;0.00;0.00;;;;;;;13.69;19.08;99871.09;5304405;26;32690;-84
2023/03/12 12:08:03;;;;;;;0.00;0.00;;;;;;;12.97;19.06;99878.44;5340139;26;34561;-83
2023/03/12 12:10:40;;;;;;;0.45;0.45;;;;;;;12.56;18.96;99877.91;5323541;26;33712;-84
2023/03/12 12:13:51;;;;;;;0.70;0.55;;;;;;;12.63;21.05;99874.03;5322218;26;35020;-84
2023/03/12 12:16:42;;;;;;;;;;;;;;;12.40;19.45;99867.25;5290224;26;34710;-83
2023/03/12 12:19:19;;;;;;;3.70;1.08;;;;;;;12.64;18.18;99864.31;5322205;26;33325;-84
2023/03/12 12:22:13;;;;;;;0.10;0.08;;;;;;;13.45;17.89;99857.38;5322162;26;33415;-84
2023/03/12 12:24:56;;;;;;;0.00;0.00;;;;;;;13.37;18.69;99851.63;5321626;26;32368;-84
2023/03/12 12:27:57;;;;;;;0.10;0.10;;;;;;;13.75;17.95;99850.38;5303303;26;33101;-84
2023/03/12 12:31:01;;;;;;;0.40;0.40;;;;;;;13.88;17.28;99849.69;5322425;26;33931;-84
2023/03/12 12:33:41;;;;;;;0.20;0.20;;;;;;;13.54;18.60;99847.13;5321909;26;34135;-83
2023/03/12 12:36:13;;;;;;;0.25;0.25;;;;;;;13.80;17.59;99842.16;5341049;26;33994;-84
2023/03/12 12:38:52;;;;;;;0.45;0.40;;;;;;;13.36;19.54;99845.47;5305285;26;32437;-84
2023/03/12 12:41:27;;;;;;;1.20;0.90;;;;;;;13.53;20.98;99834.81;5303345;26;33173;-85
2023/03/12 12:44:05;;;;;;;0.10;0.10;;;;;;;14.11;18.36;99835.97;5305441;26;33640;-83